Terminal Aerodrome Forecast
Issued by NWS Kansas City/Pleasant Hill, MO

Home | Current Version | Previous Version | Text Only | Print | Product List | Glossary On
Versions: 1 2 3 4 5 6 7 8 9 10 11 12
009
FTUS43 KEAX 040520
TAFMCI
TAF
KMCI 040520Z 0406/0506 18006KT P6SM -RA OVC025
     FM040900 16005KT 4SM RA OVC006
     FM041200 18005KT 3SM -RA BR OVC003
     FM041500 24006KT P6SM VCSH OVC007
     FM041800 27008KT P6SM BKN015
     FM041900 27008KT P6SM SCT050=

USA.gov is the U.S. government's official web portal to all federal, state and local government web resources and services.